Pagina principale
METAR-TAF:

METAR-TAF

Aeroporti :

Aeroporto di Pescara

Pescara, Italia

latitudine: 42-26N, longitudine: 014-12E, altezza: 10 m

Osservazione

Il bollettino è stato emesso 1 ora e 8 minuti fa, alle 09:50 UTC
Vento 5 kt da nord/nord-est, variando fra nord e est/nord-est
Temperature 18°C
Umidità 49%
Pressione 1021 hPa
Visibilità 10 km o più
nessuna nube inferiore a 1500 m e nessun cumulonembo

METAR: LIBP 210950Z 02005KT 360V060 CAVOK 18/07 Q1021

Ora: 12:58 (10:58 UTC)

Previsione

Il bollettino è stato emesso 5 ore e 58 minuti fa, alle 05:00 UTC
Previsione valida dal 21 alle 06 UTC al 22 alle 06 UTC
Vento 6 kt da direzioni variabili
Visibilità 10 km o più
nessuna nube inferiore a 1500 m e nessun cumulonembo

TAF: LIBP 210500Z 2106/2206 VRB06KT CAVOK

Osservazioni e previsioni meteorologiche di più di 4000 aeroporti (messaggi METAR e TAF).

Le stazioni disponibili sono rappresentate dai dischi gialli e rossi sulla carta.

Puntare il mouse per vedere il nome della stazione.

Clicca sopra per visualizzare le osservazioni e previsioni meteorologiche.

Per cambiare la mappa : fare clic sui pulsanti verdi con una croce nera per ingrandire, il pulsante verde con un trattino per diminuire, o sulla freccia verde per le mappe adiacenti.


METAR-TAF: